Time;durP1;ratioP1;P1;durP2;ratioP2;P2;SDS_P1;SDS_P2;PMS_P1;PMS_P2;Temp;Humidity;BMP_temperature;BMP_pressure;BME280_temperature;BME280_humidity;BME280_pressure;Samples;Min_cycle;Max_cycle;Signal;HPM_P1;HPM_P2
2021/05/04 00:01:46;;;;;;;3.03;2.33;;;6.30;69.00;;;;;;5032625;28;20030;-88
2021/05/04 00:04:12;;;;;;;5.32;2.10;;;6.30;69.30;;;;;;5032621;28;20083;-88
2021/05/04 00:06:37;;;;;;;4.55;2.03;;;6.30;69.70;;;;;;5032402;28;20095;-88
2021/05/04 00:09:04;;;;;;;2.00;1.80;;;6.30;69.70;;;;;;5032597;28;20034;-89
2021/05/04 00:11:30;;;;;;;3.70;1.95;;;6.30;69.70;;;;;;5032526;28;20076;-88
2021/05/04 00:13:56;;;;;;;2.75;2.03;;;6.40;69.80;;;;;;5031767;28;20053;-88
2021/05/04 00:16:24;;;;;;;1.98;1.80;;;6.40;69.60;;;;;;5032501;28;20040;-88
2021/05/04 00:18:50;;;;;;;2.47;1.70;;;6.40;69.60;;;;;;5032325;28;20048;-89
2021/05/04 00:21:16;;;;;;;1.95;1.73;;;6.40;69.70;;;;;;5032306;28;20038;-89
2021/05/04 00:23:41;;;;;;;2.78;1.63;;;6.40;69.50;;;;;;5032147;28;20030;-89
2021/05/04 00:26:11;;;;;;;3.75;1.80;;;6.40;69.70;;;;;;5032162;28;20034;-89
2021/05/04 00:28:37;;;;;;;2.08;1.88;;;6.30;69.50;;;;;;5032067;28;20124;-88
2021/05/04 00:31:03;;;;;;;2.50;2.05;;;6.30;69.60;;;;;;5032312;28;20116;-89
2021/05/04 00:33:29;;;;;;;3.05;2.17;;;6.30;69.90;;;;;;5033111;28;20544;-88
2021/05/04 00:35:55;;;;;;;2.22;1.75;;;6.30;70.00;;;;;;5036850;28;20045;-88
2021/05/04 00:38:22;;;;;;;2.00;1.90;;;6.20;70.00;;;;;;5037664;28;20179;-88
2021/05/04 00:40:48;;;;;;;4.57;1.90;;;6.20;70.10;;;;;;5033733;28;20030;-88
2021/05/04 00:43:14;;;;;;;2.80;1.65;;;6.20;70.30;;;;;;5032154;28;20048;-89
2021/05/04 00:45:40;;;;;;;2.30;1.67;;;6.20;70.40;;;;;;5032144;28;20044;-89
2021/05/04 00:48:06;;;;;;;2.30;1.83;;;6.20;70.30;;;;;;5031994;28;20041;-88
2021/05/04 00:50:32;;;;;;;3.42;2.25;;;6.20;70.30;;;;;;5031869;28;20100;-89
2021/05/04 00:52:58;;;;;;;2.00;1.80;;;6.20;70.60;;;;;;5031848;28;20037;-90
2021/05/04 00:55:25;;;;;;;2.17;2.00;;;6.20;70.60;;;;;;5031879;28;20037;-89
2021/05/04 00:57:53;;;;;;;2.10;1.90;;;6.20;71.00;;;;;;5031568;28;20041;-88
2021/05/04 01:00:19;;;;;;;2.15;1.85;;;6.10;70.80;;;;;;5031790;28;20634;-88
2021/05/04 01:02:46;;;;;;;3.22;2.00;;;6.10;71.20;;;;;;5031603;28;20073;-88
2021/05/04 01:05:12;;;;;;;1.70;1.60;;;6.10;71.40;;;;;;5031948;28;20045;-88
2021/05/04 01:07:38;;;;;;;2.13;1.73;;;6.00;71.40;;;;;;5033180;28;20438;-88
2021/05/04 01:10:06;;;;;;;2.17;1.88;;;6.00;71.60;;;;;;5031811;28;20041;-89
2021/05/04 01:12:32;;;;;;;2.03;1.83;;;6.00;71.70;;;;;;5032933;28;20033;-88
2021/05/04 01:14:58;;;;;;;2.28;2.05;;;6.00;71.90;;;;;;5031635;28;20064;-89
2021/05/04 01:17:24;;;;;;;2.63;1.83;;;6.00;72.00;;;;;;5032457;28;20450;-88
2021/05/04 01:19:50;;;;;;;2.17;1.98;;;5.90;71.90;;;;;;5040744;28;20383;-88
2021/05/04 01:22:16;;;;;;;3.15;2.10;;;5.90;72.20;;;;;;5031679;28;20045;-89
2021/05/04 01:24:41;;;;;;;2.35;2.05;;;5.90;72.50;;;;;;5032090;28;20563;-88
2021/05/04 01:27:07;;;;;;;1.65;1.50;;;5.90;72.40;;;;;;5035496;28;20446;-89
2021/05/04 01:29:33;;;;;;;2.00;1.70;;;5.80;72.30;;;;;;5035488;28;20038;-88
2021/05/04 01:31:59;;;;;;;2.78;1.63;;;5.80;72.50;;;;;;5035447;28;20042;-88
2021/05/04 01:34:25;;;;;;;2.55;1.90;;;5.70;72.80;;;;;;5035498;28;20045;-89
2021/05/04 01:36:51;;;;;;;2.90;2.10;;;5.70;73.00;;;;;;5036389;28;20045;-89
2021/05/04 01:39:17;;;;;;;2.30;1.92;;;5.70;73.20;;;;;;5045701;28;20042;-88
2021/05/04 01:41:43;;;;;;;2.40;2.05;;;5.70;73.50;;;;;;5044602;28;20091;-88
2021/05/04 01:44:10;;;;;;;2.58;2.33;;;5.60;73.40;;;;;;5035313;28;20029;-89
2021/05/04 01:46:36;;;;;;;2.72;2.50;;;5.60;73.60;;;;;;5035068;28;20033;-88
2021/05/04 01:49:04;;;;;;;3.20;2.45;;;5.50;73.70;;;;;;5034353;28;20045;-89
2021/05/04 01:51:30;;;;;;;4.55;2.38;;;5.50;73.90;;;;;;5025939;28;20080;-88
2021/05/04 01:53:57;;;;;;;4.57;2.17;;;5.40;74.10;;;;;;5029412;28;20052;-89
2021/05/04 01:56:23;;;;;;;2.65;2.35;;;5.40;74.40;;;;;;5034613;28;20551;-89
2021/05/04 01:58:49;;;;;;;5.03;2.35;;;5.30;74.70;;;;;;5029805;28;20041;-89
2021/05/04 02:01:15;;;;;;;2.42;2.20;;;5.30;75.00;;;;;;5015052;28;20073;-89
2021/05/04 02:03:41;;;;;;;2.10;1.90;;;5.20;75.40;;;;;;5021902;28;20037;-89
2021/05/04 02:06:07;;;;;;;3.75;2.17;;;5.20;75.70;;;;;;5022368;28;20046;-89
2021/05/04 02:08:33;;;;;;;2.78;2.30;;;5.20;75.80;;;;;;5020148;28;20418;-89
2021/05/04 02:10:59;;;;;;;3.63;2.50;;;5.10;76.50;;;;;;5025384;28;20054;-88
2021/05/04 02:13:25;;;;;;;2.20;2.00;;;5.10;76.30;;;;;;5024942;28;20116;-89
2021/05/04 02:15:51;;;;;;;3.33;2.15;;;5.10;76.60;;;;;;5024309;28;20108;-89
2021/05/04 02:18:18;;;;;;;3.80;2.45;;;5.00;77.30;;;;;;5025088;28;20484;-89
2021/05/04 02:20:46;;;;;;;3.75;2.63;;;5.00;78.00;;;;;;5025491;28;20497;-89
2021/05/04 02:23:12;;;;;;;4.40;3.28;;;4.90;78.20;;;;;;5029900;28;20068;-90
2021/05/04 02:25:37;;;;;;;5.88;2.80;;;4.90;79.00;;;;;;5028108;28;20467;-89
2021/05/04 02:28:04;;;;;;;3.60;2.72;;;4.80;79.50;;;;;;5017253;28;20022;-88
2021/05/04 02:30:37;;;;;;;3.95;2.65;;;4.80;80.10;;;;;;5034002;28;20037;-89
2021/05/04 02:33:03;;;;;;;3.00;2.50;;;4.70;80.50;;;;;;5022940;28;20387;-90
2021/05/04 02:35:29;;;;;;;5.22;3.00;;;4.70;80.90;;;;;;5027960;28;20037;-90
2021/05/04 02:37:54;;;;;;;4.43;2.28;;;4.60;81.30;;;;;;5023777;28;20857;-89
2021/05/04 02:40:26;;;;;;;3.60;2.80;;;4.60;81.80;;;;;;5028097;28;20116;-90
2021/05/04 02:42:52;;;;;;;3.70;2.80;;;4.60;82.10;;;;;;5023672;28;20049;-90
2021/05/04 02:45:17;;;;;;;3.80;2.97;;;4.60;82.90;;;;;;5023388;28;20076;-90
2021/05/04 02:47:43;;;;;;;3.53;2.83;;;4.60;83.30;;;;;;5024222;28;20113;-90
2021/05/04 02:50:09;;;;;;;3.58;2.60;;;4.60;83.50;;;;;;5018219;28;20033;-90
2021/05/04 02:52:35;;;;;;;3.97;3.20;;;4.60;83.60;;;;;;5057984;28;20044;-89
2021/05/04 02:55:01;;;;;;;4.18;3.13;;;4.60;83.60;;;;;;5059940;28;20026;-90
2021/05/04 02:57:27;;;;;;;4.10;2.83;;;4.70;83.90;;;;;;5059784;28;20049;-89
2021/05/04 02:59:53;;;;;;;4.70;3.10;;;4.70;83.80;;;;;;5060355;28;20026;-89
2021/05/04 03:02:18;;;;;;;3.88;3.03;;;4.70;84.10;;;;;;5059726;28;20133;-90
2021/05/04 03:04:44;;;;;;;5.13;3.17;;;4.80;84.20;;;;;;5059950;28;20030;-89
2021/05/04 03:07:10;;;;;;;3.30;2.95;;;4.80;84.80;;;;;;5055020;28;20041;-90
2021/05/04 03:09:36;;;;;;;3.45;2.75;;;4.80;85.00;;;;;;5040512;28;20434;-90
2021/05/04 03:12:02;;;;;;;5.32;2.72;;;4.80;85.10;;;;;;5033675;28;20525;-90
2021/05/04 03:14:27;;;;;;;3.63;2.92;;;4.80;85.20;;;;;;5034895;28;20025;-89
2021/05/04 03:16:53;;;;;;;3.47;2.90;;;4.90;85.60;;;;;;5032993;28;20041;-89
2021/05/04 03:19:19;;;;;;;4.55;3.05;;;4.90;86.00;;;;;;5033106;28;20036;-90
2021/05/04 03:21:45;;;;;;;4.40;2.70;;;5.00;86.10;;;;;;5033285;28;20501;-90
2021/05/04 03:24:11;;;;;;;3.75;2.67;;;5.00;86.10;;;;;;5033089;28;20467;-90
2021/05/04 03:26:36;;;;;;;5.20;3.00;;;5.00;86.20;;;;;;5032538;28;20034;-90
2021/05/04 03:29:03;;;;;;;4.40;2.97;;;5.10;86.60;;;;;;5032602;28;20029;-90
2021/05/04 03:31:28;;;;;;;3.47;2.63;;;5.10;86.60;;;;;;5032561;28;20068;-89
2021/05/04 03:33:54;;;;;;;5.13;2.90;;;5.20;86.60;;;;;;5032604;28;20364;-90
2021/05/04 03:36:20;;;;;;;5.18;2.80;;;5.30;86.90;;;;;;5033856;28;20471;-90
2021/05/04 03:38:46;;;;;;;3.83;2.78;;;5.40;86.70;;;;;;5035852;28;20044;-90
2021/05/04 03:41:11;;;;;;;3.13;2.65;;;5.50;86.60;;;;;;5032488;28;20034;-90
2021/05/04 03:43:37;;;;;;;3.33;2.85;;;5.50;86.20;;;;;;5033921;28;20049;-90
2021/05/04 03:46:03;;;;;;;2.80;2.55;;;5.70;86.20;;;;;;5032963;28;20494;-90
2021/05/04 03:48:29;;;;;;;3.15;2.67;;;5.80;85.80;;;;;;5033383;28;20475;-90
2021/05/04 03:50:55;;;;;;;3.83;2.70;;;5.90;85.60;;;;;;5032729;28;20207;-89
2021/05/04 03:53:21;;;;;;;2.78;2.58;;;6.10;85.10;;;;;;5033110;28;20127;-90
2021/05/04 03:55:47;;;;;;;4.22;2.97;;;6.30;84.70;;;;;;5032926;28;20426;-90
2021/05/04 03:58:14;;;;;;;4.43;3.30;;;6.50;84.00;;;;;;5032781;28;20041;-90
2021/05/04 04:00:40;;;;;;;4.47;3.60;;;6.60;83.20;;;;;;5033608;28;20037;-89
2021/05/04 04:03:06;;;;;;;4.05;3.08;;;6.80;82.50;;;;;;5031228;28;20025;-89
2021/05/04 04:05:32;;;;;;;3.67;2.72;;;6.90;81.80;;;;;;5032813;28;20133;-89
2021/05/04 04:07:58;;;;;;;4.13;3.35;;;7.00;81.20;;;;;;5033228;28;20038;-89
2021/05/04 04:10:24;;;;;;;5.93;3.28;;;7.20;80.40;;;;;;5033303;28;20038;-89
2021/05/04 04:12:49;;;;;;;4.75;3.17;;;7.20;79.80;;;;;;5033965;28;20041;-89
2021/05/04 04:15:18;;;;;;;4.38;3.00;;;7.40;79.10;;;;;;5032599;28;20033;-90
2021/05/04 04:17:43;;;;;;;4.03;3.00;;;7.50;78.70;;;;;;5032615;28;20049;-89
2021/05/04 04:20:10;;;;;;;4.10;2.72;;;7.60;78.10;;;;;;5033585;28;20060;-89
2021/05/04 04:22:36;;;;;;;3.58;2.88;;;7.70;77.70;;;;;;5033932;28;20045;-89
2021/05/04 04:25:06;;;;;;;3.53;2.70;;;7.80;77.60;;;;;;5034021;28;20403;-89
2021/05/04 04:27:37;;;;;;;3.28;2.70;;;7.90;77.10;;;;;;5035700;28;20055;-90
2021/05/04 04:30:04;;;;;;;3.90;2.83;;;8.10;76.50;;;;;;5033142;28;20030;-90
2021/05/04 04:32:30;;;;;;;3.10;2.58;;;8.20;75.40;;;;;;5032307;28;20399;-90
2021/05/04 04:34:58;;;;;;;4.07;3.20;;;8.40;75.30;;;;;;5032589;28;20048;-90
2021/05/04 04:37:24;;;;;;;4.57;3.15;;;8.50;74.50;;;;;;5033254;28;20505;-89
2021/05/04 04:39:51;;;;;;;4.57;3.45;;;8.60;73.70;;;;;;5036560;28;20033;-89
2021/05/04 04:42:16;;;;;;;4.60;3.38;;;8.80;73.30;;;;;;5032800;28;20045;-91
2021/05/04 04:44:42;;;;;;;6.13;3.03;;;8.90;72.40;;;;;;5033065;28;20040;-89
2021/05/04 04:47:08;;;;;;;4.15;3.20;;;9.10;72.90;;;;;;5032094;28;20049;-90
2021/05/04 04:49:34;;;;;;;4.05;2.88;;;9.30;72.50;;;;;;5034022;28;20029;-88
2021/05/04 04:52:00;;;;;;;3.70;3.28;;;9.60;73.00;;;;;;5041441;28;20418;-89
2021/05/04 04:54:26;;;;;;;4.15;3.10;;;10.00;71.80;;;;;;5034220;28;20030;-90
2021/05/04 04:56:52;;;;;;;4.45;3.17;;;10.40;71.90;;;;;;5032130;28;20096;-90
2021/05/04 04:59:17;;;;;;;3.97;3.20;;;10.80;70.50;;;;;;5032395;28;20049;-90
2021/05/04 05:01:43;;;;;;;3.00;2.70;;;11.00;68.70;;;;;;5034287;28;20065;-90
2021/05/04 05:04:09;;;;;;;3.50;2.78;;;11.30;69.20;;;;;;5032340;28;20066;-90
2021/05/04 05:06:34;;;;;;;3.53;3.10;;;11.50;68.70;;;;;;5032404;28;20103;-90
2021/05/04 05:09:02;;;;;;;4.03;2.70;;;11.70;67.30;;;;;;5032803;28;20495;-91
2021/05/04 05:11:28;;;;;;;3.50;3.05;;;11.90;67.70;;;;;;5032019;28;20072;-89
2021/05/04 05:13:54;;;;;;;5.70;3.15;;;12.30;67.50;;;;;;5032377;28;20044;-89
2021/05/04 05:16:22;;;;;;;3.42;2.65;;;12.80;66.20;;;;;;5031973;28;20041;-90
2021/05/04 05:18:47;;;;;;;3.10;2.80;;;13.20;65.30;;;;;;5031292;28;20077;-89
2021/05/04 05:21:15;;;;;;;2.60;2.40;;;13.50;63.60;;;;;;5031481;28;20443;-88
2021/05/04 05:23:43;;;;;;;5.75;2.55;;;13.90;63.70;;;;;;5032280;28;20029;-90
2021/05/04 05:26:09;;;;;;;4.30;2.70;;;14.30;62.80;;;;;;5033730;28;20044;-89
2021/05/04 05:28:35;;;;;;;3.03;2.72;;;14.60;60.20;;;;;;5032967;28;20418;-89
2021/05/04 05:31:01;;;;;;;3.45;3.15;;;14.80;59.00;;;;;;5031631;28;20048;-90
2021/05/04 05:33:27;;;;;;;3.35;2.60;;;14.90;56.90;;;;;;5031846;28;20041;-89
2021/05/04 05:35:53;;;;;;;5.72;2.40;;;15.10;57.50;;;;;;5033645;28;20121;-89
2021/05/04 05:38:22;;;;;;;2.70;2.50;;;15.40;58.40;;;;;;5033672;28;20045;-89
2021/05/04 05:40:47;;;;;;;3.65;2.40;;;15.80;57.90;;;;;;5047612;28;20558;-87
2021/05/04 05:43:13;;;;;;;2.88;2.40;;;16.20;57.20;;;;;;5045364;28;20033;-89
2021/05/04 05:45:39;;;;;;;2.55;2.35;;;16.40;54.80;;;;;;5034292;28;20040;-88
2021/05/04 05:48:04;;;;;;;2.50;2.30;;;16.50;54.20;;;;;;5033871;28;20150;-88
2021/05/04 05:50:30;;;;;;;3.03;2.72;;;16.50;53.00;;;;;;5031872;28;20036;-89
2021/05/04 05:52:56;;;;;;;3.72;2.30;;;16.50;52.80;;;;;;5032234;28;20183;-89
2021/05/04 05:55:22;;;;;;;2.45;2.22;;;16.80;53.60;;;;;;5030924;28;20076;-88
2021/05/04 05:57:48;;;;;;;2.58;2.30;;;17.00;53.00;;;;;;5031854;28;20560;-90
2021/05/04 06:00:16;;;;;;;4.47;2.58;;;17.30;51.90;;;;;;5031484;28;20025;-90
2021/05/04 06:02:42;;;;;;;3.88;2.28;;;17.30;50.80;;;;;;5032358;28;20041;-88
2021/05/04 06:05:09;;;;;;;2.80;2.30;;;17.50;51.60;;;;;;5031584;28;20509;-89
2021/05/04 06:07:34;;;;;;;3.58;2.45;;;17.80;50.80;;;;;;5031856;28;20073;-90
2021/05/04 06:10:00;;;;;;;2.33;2.13;;;18.00;50.10;;;;;;5033419;28;20451;-88
2021/05/04 06:12:26;;;;;;;3.78;2.20;;;18.20;50.80;;;;;;5037376;28;20434;-90
2021/05/04 06:14:52;;;;;;;2.75;1.95;;;18.50;50.00;;;;;;5037181;28;20033;-90
2021/05/04 06:17:17;;;;;;;2.85;2.20;;;18.90;50.40;;;;;;5037230;28;20132;-88
2021/05/04 06:19:43;;;;;;;2.53;2.33;;;19.30;48.60;;;;;;5034508;28;20030;-89
2021/05/04 06:22:09;;;;;;;2.53;2.33;;;19.30;47.40;;;;;;5036013;28;20495;-89
2021/05/04 06:24:34;;;;;;;2.60;2.17;;;18.90;45.70;;;;;;5034238;28;20414;-90
2021/05/04 06:27:00;;;;;;;3.97;2.28;;;18.50;46.00;;;;;;5034160;28;20084;-89
2021/05/04 06:29:26;;;;;;;2.70;2.50;;;18.50;46.30;;;;;;5035554;28;20166;-89
2021/05/04 06:31:58;;;;;;;3.42;2.30;;;18.70;46.80;;;;;;5034443;28;20041;-89
2021/05/04 06:34:25;;;;;;;2.35;2.00;;;18.80;45.40;;;;;;5034279;28;20406;-89
2021/05/04 06:36:50;;;;;;;2.30;2.10;;;19.10;47.00;;;;;;5034072;28;20038;-89
2021/05/04 06:39:16;;;;;;;2.67;2.10;;;19.40;46.10;;;;;;5037625;28;20045;-90
2021/05/04 06:41:42;;;;;;;2.35;2.15;;;19.50;45.70;;;;;;5034122;28;20043;-89
2021/05/04 06:44:07;;;;;;;3.30;2.03;;;19.70;44.90;;;;;;5033721;28;20037;-89
2021/05/04 06:46:33;;;;;;;3.15;1.90;;;20.00;45.10;;;;;;5034017;28;20429;-89
2021/05/04 06:49:00;;;;;;;3.13;2.00;;;20.20;43.60;;;;;;5033873;28;20052;-89
2021/05/04 06:51:26;;;;;;;2.30;2.10;;;20.40;44.00;;;;;;5033670;28;20042;-90
2021/05/04 06:53:51;;;;;;;2.50;2.13;;;20.40;43.60;;;;;;5033816;28;20041;-90
2021/05/04 06:56:17;;;;;;;2.10;1.90;;;20.60;42.60;;;;;;5033969;28;20033;-90
2021/05/04 06:58:43;;;;;;;2.33;2.05;;;20.70;43.10;;;;;;5035011;28;20119;-89
2021/05/04 07:01:09;;;;;;;2.53;2.20;;;21.10;42.50;;;;;;5035475;28;20378;-90
2021/05/04 07:03:36;;;;;;;2.22;2.03;;;21.10;41.10;;;;;;5034486;28;20047;-89
2021/05/04 07:06:03;;;;;;;1.85;1.75;;;21.20;41.80;;;;;;5035781;28;20063;-90
2021/05/04 07:08:29;;;;;;;3.08;2.10;;;21.80;40.60;;;;;;5035080;28;20136;-89
2021/05/04 07:10:56;;;;;;;2.55;1.80;;;21.50;39.10;;;;;;5034254;28;20839;-88
2021/05/04 07:13:22;;;;;;;1.98;1.75;;;21.30;39.90;;;;;;5033667;28;20068;-88
2021/05/04 07:15:48;;;;;;;2.17;1.98;;;21.10;40.10;;;;;;5033410;28;20025;-89
2021/05/04 07:18:13;;;;;;;2.30;1.88;;;20.60;39.30;;;;;;5034163;28;20430;-89
2021/05/04 07:20:40;;;;;;;2.00;1.90;;;19.70;38.80;;;;;;5035450;28;20029;-89
2021/05/04 07:23:11;;;;;;;2.15;2.00;;;18.90;40.20;;;;;;5035027;28;20030;-89
2021/05/04 07:25:38;;;;;;;3.95;1.92;;;18.40;41.10;;;;;;5034192;28;20091;-88
2021/05/04 07:28:05;;;;;;;3.35;2.20;;;18.00;42.30;;;;;;5035068;28;20096;-88
2021/05/04 07:30:32;;;;;;;2.35;2.10;;;17.90;42.40;;;;;;5035208;28;20037;-88
2021/05/04 07:32:59;;;;;;;2.45;2.00;;;17.70;42.40;;;;;;5034122;28;20049;-88
2021/05/04 07:35:25;;;;;;;2.60;2.30;;;17.40;43.60;;;;;;5034131;28;20083;-88
2021/05/04 07:37:51;;;;;;;2.10;1.90;;;17.30;43.50;;;;;;5034279;28;20049;-89
2021/05/04 07:40:16;;;;;;;2.83;2.30;;;17.10;43.50;;;;;;5042862;28;20101;-89
2021/05/04 07:42:42;;;;;;;2.50;2.10;;;17.10;44.50;;;;;;5054595;28;20041;-89
2021/05/04 07:45:09;;;;;;;3.10;1.77;;;17.90;45.50;;;;;;5051823;28;20021;-89
2021/05/04 07:47:35;;;;;;;2.42;2.10;;;18.30;43.00;;;;;;5056750;28;20077;-88
2021/05/04 07:50:02;;;;;;;1.83;1.73;;;18.30;42.10;;;;;;5057911;28;20064;-88
2021/05/04 07:52:27;;;;;;;2.20;1.98;;;18.60;42.80;;;;;;5046318;28;20037;-89
2021/05/04 07:54:53;;;;;;;2.00;1.80;;;19.00;41.80;;;;;;5032770;28;20044;-90
2021/05/04 07:57:20;;;;;;;2.10;1.90;;;18.80;40.20;;;;;;5032866;28;20049;-89
2021/05/04 07:59:46;;;;;;;1.77;1.67;;;18.90;40.80;;;;;;5033752;28;20033;-88
2021/05/04 08:02:12;;;;;;;3.47;1.80;;;19.50;42.10;;;;;;5032683;28;20048;-87
2021/05/04 08:04:37;;;;;;;1.60;1.50;;;19.90;41.10;;;;;;5032615;28;20047;-89
2021/05/04 08:07:07;;;;;;;2.05;1.85;;;20.40;40.50;;;;;;5032233;28;20088;-89
2021/05/04 08:09:35;;;;;;;2.17;1.98;;;20.10;38.00;;;;;;5033891;28;20028;-88
2021/05/04 08:12:02;;;;;;;2.67;1.60;;;19.40;38.10;;;;;;5032233;28;20037;-87
2021/05/04 08:14:28;;;;;;;2.72;1.83;;;18.60;38.60;;;;;;5032308;28;20030;-88
2021/05/04 08:16:54;;;;;;;1.98;1.88;;;18.40;39.60;;;;;;5033654;28;20112;-87
2021/05/04 08:19:21;;;;;;;1.75;1.65;;;18.50;39.30;;;;;;5031965;28;20100;-87
2021/05/04 08:21:48;;;;;;;2.40;1.60;;;18.10;39.20;;;;;;5031689;28;20056;-89
2021/05/04 08:24:22;;;;;;;2.65;1.52;;;17.50;39.90;;;;;;5032937;28;20092;-88
2021/05/04 08:26:48;;;;;;;2.00;1.80;;;17.30;40.60;;;;;;5031622;28;20065;-88
2021/05/04 08:29:14;;;;;;;1.88;1.70;;;17.10;40.50;;;;;;5031721;28;20068;-88
2021/05/04 08:31:40;;;;;;;3.20;1.92;;;16.70;41.10;;;;;;5031905;28;20057;-87
2021/05/04 08:34:07;;;;;;;3.70;2.20;;;16.30;41.40;;;;;;5032565;28;20033;-89
2021/05/04 08:36:33;;;;;;;5.32;2.10;;;16.00;42.30;;;;;;5031937;28;20033;-89
2021/05/04 08:39:02;;;;;;;2.13;1.90;;;15.70;43.00;;;;;;5033010;28;20069;-88
2021/05/04 08:41:37;;;;;;;2.35;2.15;;;15.60;43.50;;;;;;5031789;28;20037;-89
2021/05/04 08:44:02;;;;;;;;;;;15.50;43.60;;;;;;5032605;28;20046;-89
2021/05/04 08:46:52;;;;;;;1.90;1.75;;;15.30;44.50;;;;;;5034144;28;20373;-89
2021/05/04 08:49:19;;;;;;;4.32;1.98;;;15.10;45.80;;;;;;5032355;28;20066;-89
2021/05/04 08:51:47;;;;;;;2.13;1.80;;;15.00;45.60;;;;;;5032036;28;20033;-88
2021/05/04 08:54:14;;;;;;;2.38;1.80;;;15.10;46.10;;;;;;5033286;28;20105;-90
2021/05/04 08:56:41;;;;;;;1.88;1.77;;;15.20;45.80;;;;;;5032076;28;20051;-89
2021/05/04 08:59:07;;;;;;;2.20;2.00;;;15.30;45.20;;;;;;5032227;28;20061;-89
2021/05/04 09:01:33;;;;;;;1.73;1.63;;;15.50;45.40;;;;;;5031661;28;20495;-89
2021/05/04 09:04:06;;;;;;;1.80;1.70;;;15.80;44.70;;;;;;5031409;28;20133;-90
2021/05/04 09:06:41;;;;;;;1.58;1.48;;;15.80;44.10;;;;;;5032229;28;20037;-89
2021/05/04 09:09:19;;;;;;;2.45;1.92;;;15.60;43.70;;;;;;5032076;28;20044;-89
2021/05/04 09:20:08;;;;;;;1.60;1.50;;;15.30;48.30;;;;;;5033558;28;20095;-88
2021/05/04 09:22:42;;;;;;;2.17;1.55;;;16.00;48.10;;;;;;5037461;28;20034;-89
2021/05/04 09:25:29;;;;;;;1.83;1.38;;;17.10;45.80;;;;;;5039391;28;20406;-89
2021/05/04 09:28:07;;;;;;;1.77;1.42;;;17.40;42.90;;;;;;5033616;28;20048;-91
2021/05/04 09:30:34;;;;;;;1.95;1.58;;;17.10;42.30;;;;;;5032638;28;20057;-89
2021/05/04 09:33:17;;;;;;;1.60;1.50;;;16.90;42.70;;;;;;5032974;28;20383;-89
2021/05/04 09:35:43;;;;;;;1.50;1.40;;;16.50;40.70;;;;;;5032577;28;20053;-89
2021/05/04 09:38:14;;;;;;;1.73;1.48;;;16.00;42.00;;;;;;5037002;28;20049;-89
2021/05/04 09:40:45;;;;;;;1.65;1.30;;;15.80;43.10;;;;;;5033252;28;20040;-89
2021/05/04 09:43:23;;;;;;;3.15;1.23;;;16.00;43.80;;;;;;5031061;28;20457;-89
2021/05/04 09:45:53;;;;;;;2.53;1.60;;;16.60;43.80;;;;;;5032476;28;20044;-88
2021/05/04 09:48:24;;;;;;;1.70;1.50;;;16.80;42.60;;;;;;5036451;28;20041;-89
2021/05/04 09:51:04;;;;;;;1.60;1.50;;;16.90;42.10;;;;;;5036834;28;20052;-87
2021/05/04 09:53:46;;;;;;;2.10;1.58;;;17.10;41.80;;;;;;5036972;28;20033;-88
2021/05/04 09:56:14;;;;;;;1.73;1.40;;;16.90;40.70;;;;;;5035141;28;20040;-88
2021/05/04 09:58:46;;;;;;;2.10;1.20;;;16.60;40.90;;;;;;5041315;28;20052;-87
2021/05/04 10:01:17;;;;;;;1.73;1.40;;;16.30;41.70;;;;;;5036301;28;20049;-87
2021/05/04 10:03:44;;;;;;;1.38;1.27;;;16.10;42.40;;;;;;5034674;28;20509;-88
2021/05/04 10:06:12;;;;;;;1.52;1.40;;;15.70;44.10;;;;;;5035229;28;20491;-87
2021/05/04 10:08:38;;;;;;;2.38;1.60;;;15.40;45.10;;;;;;5036164;28;20060;-88
2021/05/04 10:11:12;;;;;;;1.50;1.40;;;14.90;47.10;;;;;;5036006;28;20037;-88
2021/05/04 10:13:40;;;;;;;3.60;1.50;;;14.50;48.60;;;;;;5035480;28;20033;-88
2021/05/04 10:16:09;;;;;;;1.42;1.20;;;14.40;50.00;;;;;;5034870;28;20317;-89
2021/05/04 10:18:35;;;;;;;1.48;1.15;;;15.00;51.90;;;;;;5034667;28;20579;-89
2021/05/04 10:21:03;;;;;;;1.40;1.30;;;16.10;50.40;;;;;;5034954;28;20037;-88
2021/05/04 10:23:31;;;;;;;1.10;1.00;;;16.80;48.10;;;;;;5034417;28;20041;-89
2021/05/04 10:26:01;;;;;;;1.20;1.10;;;17.10;47.10;;;;;;5035476;28;20497;-89
2021/05/04 10:28:33;;;;;;;1.15;1.05;;;17.70;46.80;;;;;;5036428;28;20064;-89
2021/05/04 10:31:01;;;;;;;1.25;1.10;;;18.90;46.60;;;;;;5034658;28;20045;-89
2021/05/04 10:33:40;;;;;;;1.23;1.10;;;20.20;44.80;;;;;;5034352;28;20053;-88
2021/05/04 10:36:26;;;;;;;2.40;1.13;;;21.50;42.00;;;;;;5035286;28;20041;-90
2021/05/04 10:39:05;;;;;;;1.00;1.00;;;22.30;38.70;;;;;;5034610;28;20144;-89
2021/05/04 10:41:55;;;;;;;0.95;0.93;;;22.00;37.80;;;;;;5035968;28;20495;-89
2021/05/04 10:44:21;;;;;;;1.33;1.05;;;21.30;37.10;;;;;;5034543;28;20061;-87
2021/05/04 10:46:47;;;;;;;1.60;1.30;;;20.50;38.10;;;;;;5040256;28;20084;-88
2021/05/04 10:49:18;;;;;;;1.50;1.40;;;19.90;38.70;;;;;;5035848;28;20128;-87
2021/05/04 10:51:45;;;;;;;2.50;1.30;;;19.10;39.00;;;;;;5035718;28;20037;-89
2021/05/04 10:54:12;;;;;;;1.15;1.10;;;18.60;39.60;;;;;;5034565;28;20034;-89
2021/05/04 10:57:02;;;;;;;1.00;1.00;;;18.20;39.70;;;;;;5034732;28;20061;-88
2021/05/04 10:59:28;;;;;;;2.58;1.20;;;18.10;40.70;;;;;;5034829;28;20084;-89
2021/05/04 11:02:09;;;;;;;0.82;0.82;;;18.40;40.30;;;;;;5035177;28;20034;-90
2021/05/04 11:04:42;;;;;;;1.55;1.10;;;18.30;39.90;;;;;;5034979;28;20487;-89
2021/05/04 11:07:08;;;;;;;1.30;1.20;;;18.10;39.40;;;;;;5033628;28;20128;-89
2021/05/04 11:09:39;;;;;;;2.13;1.10;;;17.70;39.60;;;;;;5033177;28;20072;-88
2021/05/04 11:12:06;;;;;;;1.30;1.20;;;17.20;40.20;;;;;;5035201;28;20037;-89
2021/05/04 11:14:35;;;;;;;2.45;1.27;;;16.90;41.30;;;;;;5037012;28;20083;-89
2021/05/04 11:17:04;;;;;;;1.63;1.33;;;16.80;41.50;;;;;;5034654;28;20071;-89
2021/05/04 11:19:31;;;;;;;1.58;1.35;;;16.60;41.60;;;;;;5033612;28;20073;-89
2021/05/04 11:21:57;;;;;;;1.45;1.25;;;16.40;42.00;;;;;;5034477;28;20410;-89
2021/05/04 11:24:29;;;;;;;1.50;1.40;;;16.40;42.70;;;;;;5034324;28;20065;-90
2021/05/04 11:27:01;;;;;;;1.63;1.25;;;17.00;43.30;;;;;;5036447;28;20040;-90
2021/05/04 11:29:30;;;;;;;1.55;1.20;;;18.50;43.70;;;;;;5035415;28;20116;-90
2021/05/04 11:32:10;;;;;;;1.48;1.35;;;20.00;41.60;;;;;;5034033;28;20163;-89
2021/05/04 11:34:52;;;;;;;2.30;1.27;;;21.30;39.70;;;;;;5034926;28;20045;-90
2021/05/04 11:37:22;;;;;;;2.70;1.10;;;22.00;38.30;;;;;;5034447;28;20041;-90
2021/05/04 11:39:51;;;;;;;1.90;0.98;;;22.50;36.50;;;;;;5034895;28;20045;-88
2021/05/04 11:42:42;;;;;;;2.40;1.35;;;22.50;35.50;;;;;;5033517;28;20084;-89
2021/05/04 11:45:08;;;;;;;0.85;0.73;;;22.30;35.00;;;;;;5029157;28;20035;-89
2021/05/04 11:47:35;;;;;;;0.80;0.80;;;22.70;35.10;;;;;;5034079;28;20033;-89
2021/05/04 11:50:08;;;;;;;1.35;0.70;;;23.20;35.20;;;;;;5034359;28;20026;-90
2021/05/04 11:52:35;;;;;;;1.05;0.68;;;23.90;35.20;;;;;;5034122;28;20038;-90
2021/05/04 11:55:35;;;;;;;2.42;0.85;;;24.90;34.10;;;;;;5037258;28;20517;-87
2021/05/04 11:58:17;;;;;;;0.80;0.80;;;25.40;32.90;;;;;;5027379;28;20049;-88
2021/05/04 12:00:43;;;;;;;0.68;0.68;;;25.60;32.60;;;;;;5033060;28;20029;-89
2021/05/04 12:03:16;;;;;;;1.35;0.80;;;25.60;31.50;;;;;;5036317;28;20418;-89
2021/05/04 12:05:44;;;;;;;2.05;0.95;;;25.10;31.20;;;;;;5033907;28;20430;-88
2021/05/04 12:08:11;;;;;;;1.38;0.90;;;24.20;31.20;;;;;;5033935;28;20041;-89
2021/05/04 12:10:47;;;;;;;1.38;1.25;;;23.10;32.70;;;;;;5033160;28;20030;-88
2021/05/04 12:13:21;;;;;;;1.40;1.25;;;21.90;35.10;;;;;;5033668;28;20087;-89
2021/05/04 12:15:49;;;;;;;1.23;1.20;;;21.00;37.30;;;;;;5035194;28;20040;-89
2021/05/04 12:18:17;;;;;;;2.90;1.30;;;21.20;38.70;;;;;;5036989;28;20498;-88
2021/05/04 12:20:50;;;;;;;2.60;1.20;;;21.50;37.80;;;;;;5034602;28;20029;-89
2021/05/04 12:23:32;;;;;;;1.73;1.40;;;21.50;36.80;;;;;;5033766;28;20103;-88
2021/05/04 12:26:05;;;;;;;1.58;1.17;;;21.00;36.50;;;;;;5033554;28;20113;-88
2021/05/04 12:28:33;;;;;;;1.40;1.08;;;20.40;37.10;;;;;;5032825;28;20522;-88
2021/05/04 12:31:09;;;;;;;1.83;1.17;;;19.80;37.60;;;;;;5032553;28;20042;-89
2021/05/04 12:33:39;;;;;;;1.13;1.10;;;19.80;38.70;;;;;;5032828;28;20041;-88
2021/05/04 12:36:11;;;;;;;1.10;1.00;;;20.60;38.50;;;;;;5032529;28;20044;-90
2021/05/04 12:38:57;;;;;;;2.15;1.38;;;21.40;37.60;;;;;;5032058;28;20057;-89
2021/05/04 12:41:35;;;;;;;2.08;1.20;;;22.40;36.20;;;;;;5033113;28;20056;-89
2021/05/04 12:44:14;;;;;;;1.30;1.08;;;23.50;35.90;;;;;;5032369;28;20494;-89
2021/05/04 12:46:44;;;;;;;1.10;1.02;;;24.60;34.60;;;;;;5032096;28;20041;-88
2021/05/04 12:49:11;;;;;;;1.10;1.00;;;25.50;33.90;;;;;;5031945;28;20517;-89
2021/05/04 12:51:39;;;;;;;1.20;1.10;;;25.70;32.10;;;;;;5031845;28;20061;-89
2021/05/04 12:54:15;;;;;;;2.53;1.10;;;25.40;31.90;;;;;;5031321;28;20037;-90
2021/05/04 12:56:42;;;;;;;1.25;0.90;;;25.40;32.00;;;;;;5031769;28;20478;-91
2021/05/04 12:59:09;;;;;;;1.05;0.90;;;25.50;32.00;;;;;;5031452;28;20400;-89
2021/05/04 13:01:37;;;;;;;1.35;0.90;;;25.30;31.80;;;;;;5031168;28;20112;-89
2021/05/04 13:04:09;;;;;;;1.00;0.88;;;25.10;31.00;;;;;;5032627;28;20034;-89